sensor_id;sensor_type;location;lat;lon;timestamp;pressure;altitude;pressure_sealevel;temperature;humidity
22550;BME280;11441;57.164;-2.120;2022-12-29T00:00:18;96746.03;;;6.61;100.00
22550;BME280;11441;57.164;-2.120;2022-12-29T00:02:45;96745.88;;;6.68;100.00
22550;BME280;11441;57.164;-2.120;2022-12-29T00:05:12;96751.16;;;6.75;100.00
22550;BME280;11441;57.164;-2.120;2022-12-29T00:07:39;96751.16;;;6.75;100.00
22550;BME280;11441;57.164;-2.120;2022-12-29T00:10:07;96743.97;;;6.65;100.00
22550;BME280;11441;57.164;-2.120;2022-12-29T00:12:34;96733.25;;;6.74;100.00
22550;BME280;11441;57.164;-2.120;2022-12-29T00:15:19;96736.72;;;6.58;100.00
22550;BME280;11441;57.164;-2.120;2022-12-29T00:18:04;96732.00;;;6.59;100.00
22550;BME280;11441;57.164;-2.120;2022-12-29T00:20:36;96719.09;;;6.59;100.00
22550;BME280;11441;57.164;-2.120;2022-12-29T00:23:21;96723.63;;;6.50;100.00
22550;BME280;11441;57.164;-2.120;2022-12-29T00:26:13;96724.47;;;6.47;100.00
22550;BME280;11441;57.164;-2.120;2022-12-29T00:29:00;96719.53;;;6.58;100.00
22550;BME280;11441;57.164;-2.120;2022-12-29T00:31:47;96733.19;;;6.58;100.00
22550;BME280;11441;57.164;-2.120;2022-12-29T00:34:32;96739.59;;;6.51;100.00
22550;BME280;11441;57.164;-2.120;2022-12-29T00:37:18;96733.94;;;6.42;100.00
22550;BME280;11441;57.164;-2.120;2022-12-29T00:40:05;96729.03;;;6.53;100.00
22550;BME280;11441;57.164;-2.120;2022-12-29T00:43:10;96723.91;;;6.35;100.00
22550;BME280;11441;57.164;-2.120;2022-12-29T00:45:56;96717.53;;;6.42;100.00
22550;BME280;11441;57.164;-2.120;2022-12-29T00:48:23;96713.06;;;6.32;100.00
22550;BME280;11441;57.164;-2.120;2022-12-29T00:51:08;96726.72;;;6.32;100.00
22550;BME280;11441;57.164;-2.120;2022-12-29T00:53:35;96731.13;;;6.46;100.00
22550;BME280;11441;57.164;-2.120;2022-12-29T00:56:02;96741.22;;;6.49;100.00
22550;BME280;11441;57.164;-2.120;2022-12-29T00:58:29;96745.63;;;6.42;100.00
22550;BME280;11441;57.164;-2.120;2022-12-29T01:01:04;96730.63;;;6.51;100.00
22550;BME280;11441;57.164;-2.120;2022-12-29T01:03:34;96731.75;;;6.53;100.00
22550;BME280;11441;57.164;-2.120;2022-12-29T01:06:07;96730.88;;;6.56;100.00
22550;BME280;11441;57.164;-2.120;2022-12-29T01:08:36;96725.16;;;6.51;100.00
22550;BME280;11441;57.164;-2.120;2022-12-29T01:11:06;96719.78;;;6.47;100.00
22550;BME280;11441;57.164;-2.120;2022-12-29T01:13:33;96712.16;;;6.38;100.00
22550;BME280;11441;57.164;-2.120;2022-12-29T01:16:01;96717.00;;;6.31;100.00
22550;BME280;11441;57.164;-2.120;2022-12-29T01:18:28;96716.00;;;6.41;100.00
22550;BME280;11441;57.164;-2.120;2022-12-29T01:20:59;96708.84;;;6.47;100.00
22550;BME280;11441;57.164;-2.120;2022-12-29T01:23:27;96714.63;;;6.33;100.00
22550;BME280;11441;57.164;-2.120;2022-12-29T01:25:54;96706.56;;;6.26;100.00
22550;BME280;11441;57.164;-2.120;2022-12-29T01:28:23;96713.63;;;6.23;100.00
22550;BME280;11441;57.164;-2.120;2022-12-29T01:30:51;96716.44;;;6.19;100.00
22550;BME280;11441;57.164;-2.120;2022-12-29T01:33:18;96714.34;;;6.27;100.00
22550;BME280;11441;57.164;-2.120;2022-12-29T01:35:45;96716.25;;;6.10;100.00
22550;BME280;11441;57.164;-2.120;2022-12-29T01:38:12;96722.69;;;6.00;100.00
22550;BME280;11441;57.164;-2.120;2022-12-29T01:40:47;96723.69;;;6.10;100.00
22550;BME280;11441;57.164;-2.120;2022-12-29T01:43:14;96713.25;;;6.04;100.00
22550;BME280;11441;57.164;-2.120;2022-12-29T01:45:48;96719.75;;;6.11;100.00
22550;BME280;11441;57.164;-2.120;2022-12-29T01:48:17;96722.63;;;6.03;100.00
22550;BME280;11441;57.164;-2.120;2022-12-29T01:50:52;96720.50;;;5.91;100.00
22550;BME280;11441;57.164;-2.120;2022-12-29T01:53:30;96695.72;;;5.82;100.00
22550;BME280;11441;57.164;-2.120;2022-12-29T01:56:02;96711.69;;;5.83;100.00
22550;BME280;11441;57.164;-2.120;2022-12-29T01:58:56;96710.13;;;5.82;100.00
22550;BME280;11441;57.164;-2.120;2022-12-29T02:01:26;96705.03;;;5.84;100.00
22550;BME280;11441;57.164;-2.120;2022-12-29T02:03:53;96716.44;;;5.79;100.00
22550;BME280;11441;57.164;-2.120;2022-12-29T02:06:31;96730.72;;;5.67;100.00
22550;BME280;11441;57.164;-2.120;2022-12-29T02:09:00;96718.75;;;5.81;100.00
22550;BME280;11441;57.164;-2.120;2022-12-29T02:11:28;96721.13;;;5.79;100.00
22550;BME280;11441;57.164;-2.120;2022-12-29T02:13:56;96732.75;;;5.83;100.00
22550;BME280;11441;57.164;-2.120;2022-12-29T02:22:27;96735.75;;;5.89;100.00
22550;BME280;11441;57.164;-2.120;2022-12-29T02:39:59;96765.22;;;5.77;100.00
22550;BME280;11441;57.164;-2.120;2022-12-29T02:47:44;96782.50;;;5.71;100.00
22550;BME280;11441;57.164;-2.120;2022-12-29T02:53:06;96794.63;;;5.70;100.00
22550;BME280;11441;57.164;-2.120;2022-12-29T02:55:34;96795.63;;;5.79;100.00
22550;BME280;11441;57.164;-2.120;2022-12-29T02:58:19;96797.13;;;5.60;100.00
22550;BME280;11441;57.164;-2.120;2022-12-29T03:01:11;96806.19;;;5.77;100.00
22550;BME280;11441;57.164;-2.120;2022-12-29T03:09:14;96821.94;;;5.70;100.00
22550;BME280;11441;57.164;-2.120;2022-12-29T03:11:59;96820.50;;;5.61;100.00
22550;BME280;11441;57.164;-2.120;2022-12-29T03:14:58;96830.81;;;5.50;100.00
22550;BME280;11441;57.164;-2.120;2022-12-29T03:17:53;96843.00;;;5.45;100.00
22550;BME280;11441;57.164;-2.120;2022-12-29T03:20:26;96851.88;;;5.50;100.00
22550;BME280;11441;57.164;-2.120;2022-12-29T03:23:00;96853.56;;;5.43;100.00
22550;BME280;11441;57.164;-2.120;2022-12-29T03:25:34;96867.88;;;5.24;100.00
22550;BME280;11441;57.164;-2.120;2022-12-29T03:28:09;96873.31;;;5.24;100.00
22550;BME280;11441;57.164;-2.120;2022-12-29T03:30:42;96880.50;;;5.14;100.00
22550;BME280;11441;57.164;-2.120;2022-12-29T03:33:15;96888.47;;;4.98;100.00
22550;BME280;11441;57.164;-2.120;2022-12-29T03:35:45;96885.09;;;5.17;100.00
22550;BME280;11441;57.164;-2.120;2022-12-29T03:38:18;96896.50;;;5.39;100.00
22550;BME280;11441;57.164;-2.120;2022-12-29T03:40:55;96893.56;;;5.26;100.00
22550;BME280;11441;57.164;-2.120;2022-12-29T03:43:43;96902.06;;;5.32;100.00
22550;BME280;11441;57.164;-2.120;2022-12-29T03:46:11;96916.69;;;5.45;100.00
22550;BME280;11441;57.164;-2.120;2022-12-29T03:48:40;96915.63;;;5.08;100.00
22550;BME280;11441;57.164;-2.120;2022-12-29T03:51:07;96929.88;;;4.89;100.00
22550;BME280;11441;57.164;-2.120;2022-12-29T03:53:35;96928.50;;;5.08;100.00
22550;BME280;11441;57.164;-2.120;2022-12-29T03:56:02;96933.94;;;5.08;100.00
22550;BME280;11441;57.164;-2.120;2022-12-29T03:58:29;96939.09;;;5.02;100.00
22550;BME280;11441;57.164;-2.120;2022-12-29T04:01:02;96953.88;;;5.01;100.00
22550;BME280;11441;57.164;-2.120;2022-12-29T04:03:33;96957.53;;;4.91;100.00
22550;BME280;11441;57.164;-2.120;2022-12-29T04:06:00;96970.97;;;5.09;100.00
22550;BME280;11441;57.164;-2.120;2022-12-29T04:08:33;96967.06;;;5.06;100.00
22550;BME280;11441;57.164;-2.120;2022-12-29T04:11:00;96973.94;;;4.87;100.00
22550;BME280;11441;57.164;-2.120;2022-12-29T04:13:27;96971.31;;;4.77;100.00
22550;BME280;11441;57.164;-2.120;2022-12-29T04:15:54;96969.94;;;4.96;100.00
22550;BME280;11441;57.164;-2.120;2022-12-29T04:18:21;96975.19;;;4.79;100.00
22550;BME280;11441;57.164;-2.120;2022-12-29T04:20:48;96986.94;;;4.72;100.00
22550;BME280;11441;57.164;-2.120;2022-12-29T04:23:29;96978.19;;;4.54;100.00
22550;BME280;11441;57.164;-2.120;2022-12-29T04:25:57;96982.66;;;4.71;100.00
22550;BME280;11441;57.164;-2.120;2022-12-29T04:28:25;96989.72;;;4.69;100.00
22550;BME280;11441;57.164;-2.120;2022-12-29T04:31:13;96998.88;;;4.48;100.00
22550;BME280;11441;57.164;-2.120;2022-12-29T04:33:42;96996.97;;;4.45;100.00
22550;BME280;11441;57.164;-2.120;2022-12-29T04:36:09;96995.13;;;4.31;100.00
22550;BME280;11441;57.164;-2.120;2022-12-29T04:38:37;97005.50;;;4.47;100.00
22550;BME280;11441;57.164;-2.120;2022-12-29T04:41:04;96993.63;;;4.26;100.00
22550;BME280;11441;57.164;-2.120;2022-12-29T04:43:33;97004.66;;;4.53;100.00
22550;BME280;11441;57.164;-2.120;2022-12-29T04:46:02;97001.63;;;4.48;100.00
22550;BME280;11441;57.164;-2.120;2022-12-29T04:49:05;97019.19;;;4.40;100.00
22550;BME280;11441;57.164;-2.120;2022-12-29T04:51:47;97015.28;;;4.44;100.00
22550;BME280;11441;57.164;-2.120;2022-12-29T04:54:15;97023.09;;;4.39;100.00
22550;BME280;11441;57.164;-2.120;2022-12-29T04:56:46;97026.97;;;4.41;100.00
22550;BME280;11441;57.164;-2.120;2022-12-29T04:59:15;97042.22;;;4.31;100.00
22550;BME280;11441;57.164;-2.120;2022-12-29T05:01:45;97036.28;;;4.44;100.00
22550;BME280;11441;57.164;-2.120;2022-12-29T05:04:33;97043.78;;;4.32;100.00
22550;BME280;11441;57.164;-2.120;2022-12-29T05:07:01;97040.28;;;4.32;100.00
22550;BME280;11441;57.164;-2.120;2022-12-29T05:09:28;97054.16;;;4.48;100.00
22550;BME280;11441;57.164;-2.120;2022-12-29T05:11:56;97056.63;;;4.28;100.00
22550;BME280;11441;57.164;-2.120;2022-12-29T05:14:23;97055.53;;;4.22;100.00
22550;BME280;11441;57.164;-2.120;2022-12-29T05:17:09;97069.91;;;4.23;100.00
22550;BME280;11441;57.164;-2.120;2022-12-29T05:19:35;97077.63;;;4.31;100.00
22550;BME280;11441;57.164;-2.120;2022-12-29T05:22:02;97085.47;;;4.26;100.00
22550;BME280;11441;57.164;-2.120;2022-12-29T05:24:30;97088.63;;;4.21;100.00
22550;BME280;11441;57.164;-2.120;2022-12-29T05:26:57;97106.06;;;4.30;100.00
22550;BME280;11441;57.164;-2.120;2022-12-29T05:29:50;97119.22;;;4.43;100.00
22550;BME280;11441;57.164;-2.120;2022-12-29T05:32:16;97118.06;;;4.37;100.00
22550;BME280;11441;57.164;-2.120;2022-12-29T05:35:01;97117.75;;;4.31;100.00
22550;BME280;11441;57.164;-2.120;2022-12-29T05:37:30;97119.34;;;4.21;100.00
22550;BME280;11441;57.164;-2.120;2022-12-29T05:39:58;97121.63;;;4.30;100.00
22550;BME280;11441;57.164;-2.120;2022-12-29T05:42:27;97125.88;;;4.34;100.00
22550;BME280;11441;57.164;-2.120;2022-12-29T05:45:16;97133.97;;;4.45;100.00
22550;BME280;11441;57.164;-2.120;2022-12-29T05:48:20;97141.41;;;4.41;100.00
22550;BME280;11441;57.164;-2.120;2022-12-29T05:51:22;97146.53;;;4.28;100.00
22550;BME280;11441;57.164;-2.120;2022-12-29T05:53:52;97151.63;;;4.26;100.00
22550;BME280;11441;57.164;-2.120;2022-12-29T05:56:19;97160.47;;;4.41;100.00
22550;BME280;11441;57.164;-2.120;2022-12-29T05:58:52;97161.66;;;4.37;100.00
22550;BME280;11441;57.164;-2.120;2022-12-29T06:01:21;97163.25;;;4.34;100.00
22550;BME280;11441;57.164;-2.120;2022-12-29T06:03:48;97179.13;;;4.46;100.00
22550;BME280;11441;57.164;-2.120;2022-12-29T06:06:17;97181.47;;;4.48;100.00
22550;BME280;11441;57.164;-2.120;2022-12-29T06:08:45;97175.56;;;4.57;100.00
22550;BME280;11441;57.164;-2.120;2022-12-29T06:11:13;97205.63;;;4.42;100.00
22550;BME280;11441;57.164;-2.120;2022-12-29T06:13:46;97205.91;;;4.62;100.00
22550;BME280;11441;57.164;-2.120;2022-12-29T06:16:13;97216.06;;;4.51;100.00
22550;BME280;11441;57.164;-2.120;2022-12-29T06:18:41;97223.84;;;4.52;100.00
22550;BME280;11441;57.164;-2.120;2022-12-29T06:21:08;97224.69;;;4.49;100.00
22550;BME280;11441;57.164;-2.120;2022-12-29T06:23:35;97240.53;;;4.65;100.00
22550;BME280;11441;57.164;-2.120;2022-12-29T06:26:03;97260.44;;;4.59;100.00
22550;BME280;11441;57.164;-2.120;2022-12-29T06:28:48;97256.50;;;4.60;100.00
22550;BME280;11441;57.164;-2.120;2022-12-29T06:31:15;97267.44;;;4.56;100.00
22550;BME280;11441;57.164;-2.120;2022-12-29T06:33:42;97281.88;;;4.57;100.00
22550;BME280;11441;57.164;-2.120;2022-12-29T06:36:15;97288.78;;;4.68;100.00
22550;BME280;11441;57.164;-2.120;2022-12-29T06:38:43;97298.56;;;4.62;100.00
22550;BME280;11441;57.164;-2.120;2022-12-29T06:41:09;97307.88;;;4.72;100.00
22550;BME280;11441;57.164;-2.120;2022-12-29T06:43:56;97317.56;;;4.77;100.00
22550;BME280;11441;57.164;-2.120;2022-12-29T06:46:35;97326.25;;;4.57;100.00
22550;BME280;11441;57.164;-2.120;2022-12-29T06:49:02;97322.31;;;4.65;100.00
22550;BME280;11441;57.164;-2.120;2022-12-29T06:51:29;97325.50;;;4.53;100.00
22550;BME280;11441;57.164;-2.120;2022-12-29T06:53:56;97334.38;;;4.64;100.00
22550;BME280;11441;57.164;-2.120;2022-12-29T06:56:22;97339.84;;;4.64;100.00
22550;BME280;11441;57.164;-2.120;2022-12-29T06:58:49;97332.50;;;4.47;100.00
22550;BME280;11441;57.164;-2.120;2022-12-29T07:01:16;97344.97;;;4.51;100.00
22550;BME280;11441;57.164;-2.120;2022-12-29T07:03:43;97350.38;;;4.62;100.00
22550;BME280;11441;57.164;-2.120;2022-12-29T07:06:10;97347.28;;;4.53;100.00
22550;BME280;11441;57.164;-2.120;2022-12-29T07:08:37;97364.03;;;4.51;100.00
22550;BME280;11441;57.164;-2.120;2022-12-29T07:11:05;97366.72;;;4.62;100.00
22550;BME280;11441;57.164;-2.120;2022-12-29T07:13:32;97366.34;;;4.60;100.00
22550;BME280;11441;57.164;-2.120;2022-12-29T07:15:59;97371.78;;;4.64;100.00
22550;BME280;11441;57.164;-2.120;2022-12-29T07:18:25;97366.75;;;4.55;100.00
22550;BME280;11441;57.164;-2.120;2022-12-29T07:20:52;97373.34;;;4.58;100.00
22550;BME280;11441;57.164;-2.120;2022-12-29T07:23:19;97372.59;;;4.50;100.00
22550;BME280;11441;57.164;-2.120;2022-12-29T07:25:46;97378.44;;;4.52;100.00
22550;BME280;11441;57.164;-2.120;2022-12-29T07:28:13;97378.84;;;4.47;100.00
22550;BME280;11441;57.164;-2.120;2022-12-29T07:30:40;97384.66;;;4.49;100.00
22550;BME280;11441;57.164;-2.120;2022-12-29T07:33:07;97388.88;;;4.68;100.00
22550;BME280;11441;57.164;-2.120;2022-12-29T07:35:34;97384.31;;;4.43;100.00
22550;BME280;11441;57.164;-2.120;2022-12-29T07:38:01;97394.78;;;4.56;100.00
22550;BME280;11441;57.164;-2.120;2022-12-29T07:40:28;97391.31;;;4.37;100.00
22550;BME280;11441;57.164;-2.120;2022-12-29T07:42:54;97399.09;;;4.39;100.00
22550;BME280;11441;57.164;-2.120;2022-12-29T07:45:31;97403.78;;;4.42;100.00
22550;BME280;11441;57.164;-2.120;2022-12-29T07:48:09;97412.38;;;4.29;100.00
22550;BME280;11441;57.164;-2.120;2022-12-29T07:50:36;97424.44;;;4.18;100.00
22550;BME280;11441;57.164;-2.120;2022-12-29T07:53:03;97424.44;;;4.21;100.00
22550;BME280;11441;57.164;-2.120;2022-12-29T07:55:30;97430.28;;;4.23;100.00
22550;BME280;11441;57.164;-2.120;2022-12-29T07:57:57;97441.59;;;4.22;100.00
22550;BME280;11441;57.164;-2.120;2022-12-29T08:00:24;97446.63;;;4.20;100.00
22550;BME280;11441;57.164;-2.120;2022-12-29T08:02:51;97445.09;;;4.19;100.00
22550;BME280;11441;57.164;-2.120;2022-12-29T08:05:19;97459.09;;;4.10;100.00
22550;BME280;11441;57.164;-2.120;2022-12-29T08:07:46;97454.00;;;4.23;100.00
22550;BME280;11441;57.164;-2.120;2022-12-29T08:10:13;97468.81;;;4.22;100.00
22550;BME280;11441;57.164;-2.120;2022-12-29T08:12:41;97478.53;;;4.15;100.00
22550;BME280;11441;57.164;-2.120;2022-12-29T08:15:10;97489.03;;;4.21;100.00
22550;BME280;11441;57.164;-2.120;2022-12-29T08:17:37;97495.69;;;4.27;100.00
22550;BME280;11441;57.164;-2.120;2022-12-29T08:20:05;97497.59;;;4.15;100.00
22550;BME280;11441;57.164;-2.120;2022-12-29T08:22:32;97501.91;;;4.09;100.00
22550;BME280;11441;57.164;-2.120;2022-12-29T08:24:58;97513.56;;;4.13;100.00
22550;BME280;11441;57.164;-2.120;2022-12-29T08:27:26;97504.22;;;4.11;100.00
22550;BME280;11441;57.164;-2.120;2022-12-29T08:29:52;97513.56;;;4.21;100.00
22550;BME280;11441;57.164;-2.120;2022-12-29T08:32:37;97513.97;;;4.08;100.00
22550;BME280;11441;57.164;-2.120;2022-12-29T08:35:04;97515.91;;;4.22;100.00
22550;BME280;11441;57.164;-2.120;2022-12-29T08:37:32;97531.47;;;4.22;100.00
22550;BME280;11441;57.164;-2.120;2022-12-29T08:39:59;97532.25;;;4.22;100.00
22550;BME280;11441;57.164;-2.120;2022-12-29T08:42:31;97538.09;;;4.21;100.00
22550;BME280;11441;57.164;-2.120;2022-12-29T08:44:58;97542.38;;;4.14;100.00
22550;BME280;11441;57.164;-2.120;2022-12-29T08:47:25;97537.69;;;4.15;100.00
22550;BME280;11441;57.164;-2.120;2022-12-29T08:49:52;97548.97;;;4.21;100.00
22550;BME280;11441;57.164;-2.120;2022-12-29T08:52:19;97551.69;;;4.24;100.00
22550;BME280;11441;57.164;-2.120;2022-12-29T08:54:46;97546.63;;;4.08;100.00
22550;BME280;11441;57.164;-2.120;2022-12-29T08:57:13;97565.72;;;4.15;100.00
22550;BME280;11441;57.164;-2.120;2022-12-29T09:00:01;97560.25;;;4.01;100.00
22550;BME280;11441;57.164;-2.120;2022-12-29T09:02:47;97584.38;;;4.03;100.00
22550;BME280;11441;57.164;-2.120;2022-12-29T09:05:14;97586.28;;;3.91;100.00
22550;BME280;11441;57.164;-2.120;2022-12-29T09:07:41;97602.25;;;4.00;100.00
22550;BME280;11441;57.164;-2.120;2022-12-29T09:10:08;97601.09;;;3.87;100.00
22550;BME280;11441;57.164;-2.120;2022-12-29T09:12:35;97603.38;;;3.81;100.00
22550;BME280;11441;57.164;-2.120;2022-12-29T09:15:03;97606.47;;;3.80;100.00
22550;BME280;11441;57.164;-2.120;2022-12-29T09:17:30;97612.72;;;3.84;100.00
22550;BME280;11441;57.164;-2.120;2022-12-29T09:20:16;97609.97;;;3.69;100.00
22550;BME280;11441;57.164;-2.120;2022-12-29T09:22:43;97613.84;;;3.65;100.00
22550;BME280;11441;57.164;-2.120;2022-12-29T09:25:11;97603.72;;;3.69;100.00
22550;BME280;11441;57.164;-2.120;2022-12-29T09:27:38;97606.06;;;3.67;100.00
22550;BME280;11441;57.164;-2.120;2022-12-29T09:30:07;97613.09;;;3.71;100.00
22550;BME280;11441;57.164;-2.120;2022-12-29T09:32:34;97616.94;;;3.67;100.00
22550;BME280;11441;57.164;-2.120;2022-12-29T09:35:09;97615.81;;;3.68;100.00
22550;BME280;11441;57.164;-2.120;2022-12-29T09:37:36;97615.44;;;3.80;100.00
22550;BME280;11441;57.164;-2.120;2022-12-29T09:40:04;97617.00;;;3.85;100.00
22550;BME280;11441;57.164;-2.120;2022-12-29T09:47:41;97637.63;;;3.89;100.00
22550;BME280;11441;57.164;-2.120;2022-12-29T09:50:26;97645.81;;;3.96;100.00
22550;BME280;11441;57.164;-2.120;2022-12-29T09:53:07;97643.50;;;4.02;100.00
22550;BME280;11441;57.164;-2.120;2022-12-29T09:55:41;97655.19;;;4.03;100.00
22550;BME280;11441;57.164;-2.120;2022-12-29T09:58:35;97656.72;;;4.04;100.00
22550;BME280;11441;57.164;-2.120;2022-12-29T10:01:08;97663.00;;;4.11;100.00
22550;BME280;11441;57.164;-2.120;2022-12-29T10:03:47;97674.66;;;4.05;100.00
22550;BME280;11441;57.164;-2.120;2022-12-29T10:06:19;97677.38;;;4.15;100.00
22550;BME280;11441;57.164;-2.120;2022-12-29T10:11:49;97683.66;;;4.30;100.00
22550;BME280;11441;57.164;-2.120;2022-12-29T10:25:25;97708.63;;;4.54;100.00
22550;BME280;11441;57.164;-2.120;2022-12-29T10:28:01;97719.13;;;4.52;100.00
22550;BME280;11441;57.164;-2.120;2022-12-29T10:30:28;97723.41;;;4.49;100.00
22550;BME280;11441;57.164;-2.120;2022-12-29T10:33:02;97723.44;;;4.71;100.00
22550;BME280;11441;57.164;-2.120;2022-12-29T10:35:34;97730.84;;;4.78;100.00
22550;BME280;11441;57.164;-2.120;2022-12-29T10:40:51;97738.28;;;5.02;100.00
22550;BME280;11441;57.164;-2.120;2022-12-29T10:43:26;97737.88;;;5.11;100.00
22550;BME280;11441;57.164;-2.120;2022-12-29T10:45:59;97730.09;;;4.91;100.00
22550;BME280;11441;57.164;-2.120;2022-12-29T10:48:31;97731.25;;;4.87;100.00
22550;BME280;11441;57.164;-2.120;2022-12-29T10:51:01;97738.66;;;4.94;100.00
22550;BME280;11441;57.164;-2.120;2022-12-29T10:53:45;97731.63;;;4.93;100.00
22550;BME280;11441;57.164;-2.120;2022-12-29T10:56:34;97739.03;;;4.99;100.00
22550;BME280;11441;57.164;-2.120;2022-12-29T10:59:13;97739.84;;;5.03;100.00
22550;BME280;11441;57.164;-2.120;2022-12-29T11:07:00;97736.31;;;5.06;100.00
22550;BME280;11441;57.164;-2.120;2022-12-29T11:09:29;97741.75;;;5.10;100.00
22550;BME280;11441;57.164;-2.120;2022-12-29T11:12:39;97748.78;;;5.18;100.00
22550;BME280;11441;57.164;-2.120;2022-12-29T11:18:03;97756.59;;;5.23;100.00
22550;BME280;11441;57.164;-2.120;2022-12-29T11:20:35;97761.25;;;5.08;100.00
22550;BME280;11441;57.164;-2.120;2022-12-29T11:23:20;97766.72;;;5.16;100.00
22550;BME280;11441;57.164;-2.120;2022-12-29T11:28:33;97745.69;;;5.05;100.00
22550;BME280;11441;57.164;-2.120;2022-12-29T11:31:03;97761.66;;;5.14;100.00
22550;BME280;11441;57.164;-2.120;2022-12-29T11:33:38;97762.03;;;5.05;100.00
22550;BME280;11441;57.164;-2.120;2022-12-29T11:36:27;97775.31;;;5.25;100.00
22550;BME280;11441;57.164;-2.120;2022-12-29T11:38:56;97764.00;;;5.23;100.00
22550;BME280;11441;57.164;-2.120;2022-12-29T11:41:25;97765.94;;;5.19;100.00
22550;BME280;11441;57.164;-2.120;2022-12-29T11:43:54;97772.94;;;5.27;100.00
22550;BME280;11441;57.164;-2.120;2022-12-29T11:46:46;97768.69;;;5.29;100.00
22550;BME280;11441;57.164;-2.120;2022-12-29T11:49:20;97762.81;;;5.24;100.00
22550;BME280;11441;57.164;-2.120;2022-12-29T11:51:51;97762.44;;;5.25;100.00
22550;BME280;11441;57.164;-2.120;2022-12-29T11:54:36;97771.41;;;5.29;100.00
22550;BME280;11441;57.164;-2.120;2022-12-29T11:57:13;97772.94;;;5.27;100.00
22550;BME280;11441;57.164;-2.120;2022-12-29T12:00:02;97779.59;;;5.26;100.00
22550;BME280;11441;57.164;-2.120;2022-12-29T12:05:37;97783.88;;;5.27;100.00
22550;BME280;11441;57.164;-2.120;2022-12-29T12:13:55;97776.06;;;5.29;100.00
22550;BME280;11441;57.164;-2.120;2022-12-29T12:16:49;97777.25;;;5.35;100.00
22550;BME280;11441;57.164;-2.120;2022-12-29T12:19:40;97788.16;;;5.32;100.00
22550;BME280;11441;57.164;-2.120;2022-12-29T12:25:21;97789.31;;;5.27;100.00
22550;BME280;11441;57.164;-2.120;2022-12-29T12:30:37;97780.75;;;5.36;100.00
22550;BME280;11441;57.164;-2.120;2022-12-29T12:33:18;97784.63;;;5.31;100.00
22550;BME280;11441;57.164;-2.120;2022-12-29T12:38:44;97795.16;;;5.33;100.00
22550;BME280;11441;57.164;-2.120;2022-12-29T12:41:32;97792.81;;;5.27;100.00
22550;BME280;11441;57.164;-2.120;2022-12-29T12:57:47;97797.13;;;5.39;100.00
22550;BME280;11441;57.164;-2.120;2022-12-29T13:00:19;97791.66;;;5.32;100.00
22550;BME280;11441;57.164;-2.120;2022-12-29T13:06:18;97796.75;;;5.30;100.00
22550;BME280;11441;57.164;-2.120;2022-12-29T13:11:51;97785.41;;;5.14;100.00
22550;BME280;11441;57.164;-2.120;2022-12-29T13:14:32;97783.09;;;5.30;100.00
22550;BME280;11441;57.164;-2.120;2022-12-29T13:17:27;97784.25;;;5.33;100.00
22550;BME280;11441;57.164;-2.120;2022-12-29T13:22:56;97786.22;;;5.36;100.00
22550;BME280;11441;57.164;-2.120;2022-12-29T13:25:50;97783.09;;;5.26;100.00
22550;BME280;11441;57.164;-2.120;2022-12-29T13:28:59;97784.63;;;5.27;100.00
22550;BME280;11441;57.164;-2.120;2022-12-29T13:35:06;97781.53;;;5.22;100.00
22550;BME280;11441;57.164;-2.120;2022-12-29T13:37:54;97794.78;;;5.05;100.00
22550;BME280;11441;57.164;-2.120;2022-12-29T13:40:24;97786.22;;;5.18;100.00
22550;BME280;11441;57.164;-2.120;2022-12-29T13:42:53;97788.56;;;5.19;100.00
22550;BME280;11441;57.164;-2.120;2022-12-29T13:45:24;97778.03;;;5.10;100.00
22550;BME280;11441;57.164;-2.120;2022-12-29T13:48:19;97788.94;;;5.07;100.00
22550;BME280;11441;57.164;-2.120;2022-12-29T13:50:58;97795.56;;;5.24;100.00
22550;BME280;11441;57.164;-2.120;2022-12-29T13:54:10;97801.00;;;5.20;100.00
22550;BME280;11441;57.164;-2.120;2022-12-29T13:56:21;97800.25;;;5.02;100.00
22550;BME280;11441;57.164;-2.120;2022-12-29T13:58:57;97794.41;;;5.10;100.00
22550;BME280;11441;57.164;-2.120;2022-12-29T14:01:33;97797.50;;;5.20;100.00
22550;BME280;11441;57.164;-2.120;2022-12-29T14:04:03;97810.75;;;5.03;100.00
22550;BME280;11441;57.164;-2.120;2022-12-29T14:06:36;97809.56;;;4.97;100.00
22550;BME280;11441;57.164;-2.120;2022-12-29T14:12:01;97811.09;;;4.87;100.00
22550;BME280;11441;57.164;-2.120;2022-12-29T14:14:46;97803.34;;;4.97;100.00
22550;BME280;11441;57.164;-2.120;2022-12-29T14:17:19;97807.66;;;5.16;100.00
22550;BME280;11441;57.164;-2.120;2022-12-29T14:20:15;97803.75;;;5.09;100.00
22550;BME280;11441;57.164;-2.120;2022-12-29T14:23:28;97822.06;;;5.38;100.00
22550;BME280;11441;57.164;-2.120;2022-12-29T14:31:00;97822.84;;;5.31;100.00
22550;BME280;11441;57.164;-2.120;2022-12-29T14:33:30;97824.81;;;5.41;100.00
22550;BME280;11441;57.164;-2.120;2022-12-29T14:36:27;97820.13;;;5.45;100.00
22550;BME280;11441;57.164;-2.120;2022-12-29T14:47:22;97828.31;;;5.31;100.00
22550;BME280;11441;57.164;-2.120;2022-12-29T14:49:53;97833.78;;;5.42;100.00
22550;BME280;11441;57.164;-2.120;2022-12-29T14:52:24;97838.06;;;5.36;100.00
22550;BME280;11441;57.164;-2.120;2022-12-29T14:57:44;97847.41;;;5.17;100.00
22550;BME280;11441;57.164;-2.120;2022-12-29T15:00:27;97847.03;;;5.22;100.00
22550;BME280;11441;57.164;-2.120;2022-12-29T15:03:29;97847.81;;;5.26;100.00
22550;BME280;11441;57.164;-2.120;2022-12-29T15:05:59;97858.75;;;5.26;100.00
22550;BME280;11441;57.164;-2.120;2022-12-29T15:08:38;97856.34;;;5.14;100.00
22550;BME280;11441;57.164;-2.120;2022-12-29T15:11:16;97849.72;;;5.00;100.00
22550;BME280;11441;57.164;-2.120;2022-12-29T15:13:44;97861.00;;;4.95;100.00
22550;BME280;11441;57.164;-2.120;2022-12-29T15:16:26;97853.19;;;4.90;100.00
22550;BME280;11441;57.164;-2.120;2022-12-29T15:18:56;97869.19;;;4.95;100.00
22550;BME280;11441;57.164;-2.120;2022-12-29T15:21:29;97855.94;;;5.01;100.00
22550;BME280;11441;57.164;-2.120;2022-12-29T15:23:57;97864.13;;;4.90;100.00
22550;BME280;11441;57.164;-2.120;2022-12-29T15:26:36;97871.09;;;4.87;100.00
22550;BME280;11441;57.164;-2.120;2022-12-29T15:29:03;97882.75;;;4.77;100.00
22550;BME280;11441;57.164;-2.120;2022-12-29T15:31:30;97882.81;;;4.88;100.00
22550;BME280;11441;57.164;-2.120;2022-12-29T15:34:11;97879.72;;;5.00;100.00